Sunday, January 20, 2019, 7:36 AM GMT
Back to Local

CXKT, Kentville , N. S.

Location: , , Canada Lat: 45.067
Local Time: 7:36 AM GMT ( 7:36 GMT) Lon: -64.483
Time Zone: GMT Elev: 160 ft

Show me the last for .
Show Decoded

2019-01-20 07:00 METAR CXKT 200700Z AUTO 08007KT M13/M19 RMK AO1 SOG 08 0001 SLP284 T11341186 =
2019-01-20 06:00 METAR CXKT 200600Z AUTO 08005KT M13/M18 RMK AO1 SOG 08 6003 SLP287 T11311176 =
2019-01-20 05:00 METAR CXKT 200500Z AUTO 08005KT M13/M18 RMK AO1 SOG 08 5002 SLP288 T11261175 =
2019-01-20 04:00 METAR CXKT 200400Z AUTO 07004KT M12/M17 RMK AO1 SOG 08 8010 SLP283 T11201168 =
2019-01-20 03:00 METAR CXKT 200300Z AUTO 07004KT M11/M16 RMK AO1 SOG 08 6004 SLP290 T11121155 =
2019-01-20 02:00 METAR CXKT 200200Z AUTO 03004KT M11/M18 RMK AO1 SOG 08 0003 SLP290 T11131184 =
2019-01-20 01:00 METAR CXKT 200100Z AUTO 04002KT M11/M19 RMK AO1 SOG 08 0019 SLP293 T11121191 =
2019-01-20 00:00 METAR CXKT 200000Z AUTO 03003KT M11/M20 RMK AO1 SOG 08 1032 SLP294 T11121195 =
2019-01-19 23:00 METAR CXKT 192300Z AUTO 01004KT M11/M19 RMK AO1 SOG 08 3024 SLP287 T11091188 =
2019-01-19 22:00 METAR CXKT 192200Z AUTO 02004KT M11/M18 RMK AO1 SOG 08 3015 SLP274 T11071183 =
2019-01-19 21:00 METAR CXKT 192100Z AUTO 01003KT M10/M19 RMK AO1 SOG 08 0011 SLP261 T10951192 =
2019-01-19 20:00 METAR CXKT 192000Z AUTO 35005KT M10/M19 RMK AO1 SOG 08 3014 SLP262 T10971194 =
2019-01-19 19:00 METAR CXKT 191900Z AUTO 35006KT M09/M20 RMK AO1 SOG 08 3007 SLP258 T10941203 =
2019-01-19 18:00 METAR CXKT 191800Z AUTO 31005KT M09/M21 RMK AO1 SOG 08 1004 SLP250 T10881212 =
2019-01-19 17:00 METAR CXKT 191700Z AUTO 33004KT M09/M22 RMK AO1 SOG 08 0012 SLP248 T10861216 =
2019-01-19 16:00 METAR CXKT 191600Z AUTO 31008KT M09/M22 RMK AO1 SOG 08 1030 SLP251 T10921217 =
2019-01-19 15:00 METAR CXKT 191500Z AUTO 33007KT M09/M17 RMK AO1 SOG 08 3034 PK WND 32017/1408
                 SLP246 T10881170 =
2019-01-19 14:00 METAR CXKT 191400Z AUTO 32009G16KT M08/M16 RMK AO1 SOG 08 3038 SLP236 T10831158
                 =
2019-01-19 13:00 METAR CXKT 191300Z AUTO 33005KT M08/M16 RMK AO1 SOG 08 1034 SLP221 T10811156 =
2019-01-19 12:00 METAR CXKT 191200Z AUTO 28006KT M08/M16 RMK AO1 SOG 08 1040 SLP212 T10761163 =
2019-01-19 11:00 METAR CXKT 191100Z AUTO 27006KT M06/M17 RMK AO1 SOG 08 1042 SLP198 T10641166 =
2019-01-19 10:00 METAR CXKT 191000Z AUTO 28010G17KT M05/M14 RMK AO1 SOG 08 3039 PK WND 30021/0900
                 SLP187 T10511139 =
2019-01-19 09:00 METAR CXKT 190900Z AUTO 29012G20KT M02/M08 RMK AO1 SOG 08 3024 PK WND 30020/0859
                 SLP171 T10211075 =
2019-01-19 08:00 METAR CXKT 190800Z AUTO 26008KT M01/M02 RMK AO1 SOG 08 3004 SLP155 T10131015 =

Support USWX by starting your Amazon purchase here.